• Join FlightAware (Why Join?)
  • Login
  • US Flag 
04:57AM EST


 

Airport Tracker/Info


-or-


 

Live Flight TrackerFlight Track Log ✈ AIP5031 ✈ 07-Aug-2013 ✈ KMSO - KBIL

Flight Track Log - Related Links

Times and Time Zones

All times are in EDT time to prevent confusion due to time zone crossing. See the AIP5031 flight status page for this flight to view local times or setup timezone preferences in your user account.

Time Position Orientation Groundspeed Altitude Reporting Facility
EDT Latitude Longitude Course Direction KTS MPH feet Rate Location/Type
05:31AM 46.9317 -114.1194 105° East 160 184 4,200  Level Salt Lake Center
05:32AM 46.9158 -114.1578 239° Southwest 155 178 6,100 1,620 Climbing Salt Lake Center
05:33AM 46.8986 -114.0992 113° Southeast 169 194 7,500 1,440 Climbing Salt Lake Center
05:34AM 46.8864 -114.0336 105° East 170 196 9,000 1,320 Climbing Salt Lake Center
05:35AM 46.8231 -113.5563 101° East  Level Estimated
05:35AM 46.8742 -113.9600 104° East 173 199 10,200  Level Salt Lake Center
05:36AM 46.8065 -113.4678 105° East  Level FlightAware Approximate
05:36AM 46.8614 -113.8892 105° East 180 207 11,200  Level Salt Lake Center
05:37AM 46.8494 -113.8164 103° East 184 212 12,300 1,020 Climbing Salt Lake Center
05:38AM 46.8328 -113.7431 108° East 191 220 13,300 840 Climbing Salt Lake Center
05:39AM 46.8225 -113.6669 101° East 193 222 14,000 660 Climbing Salt Lake Center
05:40AM 46.8081 -113.5869 105° East 205 236 14,700 540 Climbing Salt Lake Center
05:41AM 46.7925 -113.5036 105° East 212 244 15,100 120 Climbing Salt Lake Center
05:42AM 46.7753 -113.4114 105° East 235 270 15,000 -60 Descending Salt Lake Center
05:43AM 46.7628 -113.3172 101° East 238 274 15,000  Level Salt Lake Center
05:44AM 46.7517 -113.2358 101° East 232 267 15,100  Climbing Salt Lake Center
05:45AM 46.7400 -113.1431 100° East 233 268 15,100  Level Salt Lake Center
05:46AM 46.7281 -113.0483 100° East 236 272 15,100  Level Salt Lake Center
05:47AM 46.7117 -112.9547 104° East 238 274 15,100  Level Salt Lake Center
05:48AM 46.6900 -112.8544 107° East 233 268 15,100  Level Salt Lake Center
05:49AM 46.6708 -112.7628 107° East 236 272 15,100  Level Salt Lake Center
05:50AM 46.6536 -112.6714 105° East 237 273 15,100  Level Salt Lake Center
05:51AM 46.6344 -112.5778 107° East 239 275 15,100 -60 Level Salt Lake Center
05:52AM 46.6200 -112.4861 103° East 237 273 15,000 -60 Descending Salt Lake Center
05:53AM 46.6031 -112.3950 105° East 235 270 15,000  Level Salt Lake Center
05:54AM 46.5833 -112.3072 108° East 233 268 15,100  Climbing Salt Lake Center
05:55AM 46.5625 -112.2167 108° East 234 269 15,100  Level Salt Lake Center
05:56AM 46.5436 -112.1261 107° East 234 269 15,100  Level Salt Lake Center
05:57AM 46.5256 -112.0328 106° East 236 272 15,100  Level Salt Lake Center
05:58AM 46.5156 -111.9417 99° East 234 269 15,100  Level Salt Lake Center
05:59AM 46.4983 -111.8514 105° East 236 272 15,100  Level Salt Lake Center
06:00AM 46.4783 -111.7600 108° East 238 274 15,100 -60 Level Salt Lake Center
06:01AM 46.4589 -111.6669 107° East 241 277 15,000 -60 Descending Salt Lake Center
06:02AM 46.4375 -111.5706 108° East 240 276 15,000  Level Salt Lake Center
06:03AM 46.4189 -111.4767 106° East 241 277 15,000  Level Salt Lake Center
06:04AM 46.4017 -111.3828 105° East 241 277 15,000  Level Salt Lake Center
06:05AM 46.3842 -111.2889 105° East 241 277 15,000  Level Salt Lake Center
06:06AM 46.3633 -111.1953 108° East 243 280 15,000  Level Salt Lake Center
06:07AM 46.3469 -111.1006 104° East 243 280 15,000  Level Salt Lake Center
06:08AM 46.3364 -111.0044 99° East 243 280 15,000  Level Salt Lake Center
06:09AM 46.3183 -110.9097 105° East 239 275 15,100  Climbing Salt Lake Center
06:10AM 46.3056 -110.8150 101° East 239 275 15,100  Level Salt Lake Center
06:11AM 46.2994 -110.7317 96° East 240 276 15,100  Level Salt Lake Center
06:12AM 46.2728 -110.6281 110° East 243 280 15,100  Level Salt Lake Center
06:13AM 46.2536 -110.5364 107° East 239 275 15,100 -60 Level Salt Lake Center
06:14AM 46.2364 -110.4411 105° East 241 277 15,000 -60 Descending Salt Lake Center
06:15AM 46.2183 -110.3425 105° East 248 285 15,000 -60 Level Salt Lake Center
06:16AM 46.1919 -110.2500 112° Southeast 251 289 14,900 -60 Descending Salt Lake Center
06:17AM 46.1619 -110.1628 116° Southeast 248 285 14,900  Level Salt Lake Center
06:18AM 46.1414 -110.0689 108° East 245 282 15,000  Climbing Salt Lake Center
06:19AM 46.1203 -109.9764 108° East 244 281 15,000 -60 Level Salt Lake Center
06:20AM 46.0997 -109.8831 108° East 244 281 14,900  Descending Salt Lake Center
06:21AM 46.0808 -109.7833 105° East 252 290 15,000  Climbing Salt Lake Center
06:22AM 46.0608 -109.6911 107° East 247 284 15,000  Level Salt Lake Center
06:23AM 46.0450 -109.5981 104° East 242 278 15,000  Level Salt Lake Center
06:24AM 46.0253 -109.5039 107° East 246 283 15,000 -180 Level Salt Lake Center
06:25AM 46.0039 -109.4006 107° East 252 290 14,700 -540 Descending Salt Lake Center
06:26AM 45.9811 -109.3053 109° East 254 292 14,000 -780 Descending Salt Lake Center
06:27AM 45.9592 -109.2083 108° East 257 296 13,200 -900 Descending Salt Lake Center
06:28AM 45.9344 -109.1150 111° Southeast 255 293 12,300 -960 Descending Salt Lake Center
06:29AM 45.9100 -109.0203 110° East 257 296 11,300 -960 Descending Salt Lake Center
06:30AM 45.8878 -108.9294 109° East 246 283 10,400 -1,140 Descending Salt Lake Center
06:31AM 45.8703 -108.8411 106° East 235 270 9,100 -1,380 Descending Salt Lake Center
06:32AM 45.8542 -108.7461 104° East 229 264 7,700 -1,500 Descending Salt Lake Center
06:33AM 45.8422 -108.6669 102° East 209 241 6,100 -1,500 Descending Salt Lake Center
06:34AM 45.8258 -108.6017 110° East 172 198 4,700 -1,200 Descending Salt Lake Center
06:35AM 45.8133 -108.5583 112° Southeast 124 143 3,800 -900 Descending Salt Lake Center
06:37AM 45.8077 -108.5429 90° East  Level Estimated
06:44AM 45.8077 -108.5429 90° East  Level Estimated